Latest Weather Observations for Tarcoola

IDS60801

Issued at 9:51 am CST Tuesday 16 August 2022 (issued every 10 minutes, with the page automatically refreshed every 10 minutes)

About weather observations | Map of weather stations | Latest weather observations for SA | Other Formats
Station Details ID: 016098 Name: TARCOOLA AERO Lat: -30.71 Lon: 134.58 Height: 123.0 m
Data from the previous 72 hours. | See also: Recent months at Tarcoola
Date/Time
CST
Temp
°C
App
Temp
°C
Dew
Point
°C
Rel
Hum
%
Delta-T
°C
Wind Press
QNH
hPa
Press
MSL
hPa
Rain since
9am
mm
Dir  Spd
km/h
Gust
km/h
Spd
kts
Gust
kts
16/09:30am 11.9 10.6 6.2 68 2.7 SW 2 9 1 5 1023.4 1023.4 0.0
16/09:00am 9.7 7.5 5.5 75 1.9 SW 6 7 3 4 1023.4 1023.4 0.0
16/08:30am 7.8 5.5 4.9 82 1.3 WSW 6 9 3 5 1023.6 1023.6 0.0
16/08:00am 5.7 3.0 3.9 88 0.8 W 7 9 4 5 1023.3 1023.3 0.0
16/07:30am 2.5 0.2 0.2 85 0.9 SE 2 9 1 5 1022.8 1022.8 0.0
16/07:00am 2.3 0.4 0.5 88 0.7 CALM 0 0 0 0 1022.5 1022.5 0.0
16/06:30am 1.0 -1.2 -1.2 85 0.8 CALM 0 0 0 0 1022.0 1022.0 0.0
16/06:00am 0.9 -1.3 -1.3 85 0.8 CALM 0 0 0 0 1021.4 1021.4 0.0
16/05:30am 1.2 -1.0 -1.2 84 0.8 CALM 0 0 0 0 1021.1 1021.1 0.0
16/05:00am 1.6 -0.5 -0.8 84 0.9 CALM 0 0 0 0 1021.0 1021.0 0.0
16/04:30am 1.8 -0.3 -0.8 83 0.9 CALM 0 0 0 0 1020.8 1020.8 0.0
16/04:00am 2.6 0.7 0.3 85 0.9 CALM 0 0 0 0 1020.6 1020.6 0.0
16/03:30am 2.8 0.5 0.4 84 0.9 E 2 6 1 3 1020.5 1020.4 0.0
16/03:00am 3.2 1.3 0.8 84 0.9 CALM 0 0 0 0 1020.6 1020.6 0.0
16/02:30am 3.8 0.8 1.0 82 1.1 SSW 6 7 3 4 1020.7 1020.7 0.0
16/02:00am 4.5 1.4 1.4 80 1.2 SSW 7 9 4 5 1020.8 1020.8 0.0
16/01:30am 5.5 2.6 2.5 81 1.2 SW 7 7 4 4 1021.0 1021.0 0.0
16/01:00am 6.2 3.0 3.2 81 1.3 WSW 9 11 5 6 1021.0 1021.0 0.0
16/12:30am 6.4 2.8 2.7 77 1.5 WSW 11 11 6 6 1021.0 1021.0 0.0
16/12:00am 7.3 3.8 3.5 77 1.6 W 11 13 6 7 1021.0 1021.0 0.0
 
Date/Time
CST
Temp
°C
App
Temp
°C
Dew
Point
°C
Rel
Hum
%
Delta-T
°C
Wind Press
QNH
hPa
Press
MSL
hPa
Rain since
9am
mm
Dir  Spd
km/h
Gust
km/h
Spd
kts
Gust
kts
15/11:30pm 7.3 3.7 3.0 74 1.8 W 11 11 6 6 1021.0 1021.0 0.0
15/11:00pm 7.9 4.3 3.0 71 2.1 WSW 11 11 6 6 1020.9 1020.9 0.0
15/10:30pm 9.8 6.0 4.0 67 2.6 WSW 13 15 7 8 1020.8 1020.8 0.0
15/10:00pm 11.0 6.9 4.5 64 2.9 SW 15 20 8 11 1020.7 1020.7 0.0
15/09:30pm 11.8 6.9 4.3 60 3.4 SW 19 28 10 15 1020.5 1020.4 0.0
15/09:00pm 12.5 7.0 4.2 57 3.8 SW 22 32 12 17 1020.3 1020.3 0.0
15/08:30pm 12.8 7.9 4.0 55 4.0 SW 19 28 10 15 1019.9 1019.9 0.0
15/08:00pm 13.3 8.1 3.7 52 4.4 SW 20 30 11 16 1019.7 1019.7 0.0
15/07:30pm 13.9 8.7 3.4 49 4.7 SW 20 30 11 16 1019.0 1019.0 0.0
15/07:00pm 14.4 9.1 3.2 47 5.1 SW 20 32 11 17 1018.6 1018.6 0.0
15/06:30pm 15.1 8.3 3.0 44 5.5 SW 28 39 15 21 1018.3 1018.3 0.0
15/06:00pm 15.8 9.4 3.3 43 5.7 SW 26 37 14 20 1017.8 1017.8 0.0
15/05:30pm 16.8 9.8 2.0 37 6.7 SW 28 37 15 20 1017.3 1017.3 0.0
15/05:00pm 17.6 9.2 1.6 34 7.2 SW 35 46 19 25 1016.7 1016.7 0.0
15/04:30pm 18.1 9.0 1.6 33 7.4 WSW 39 54 21 29 1016.5 1016.5 0.0
15/04:04pm 18.4 10.5 1.0 31 7.8 SW 32 52 17 28 1016.2 1016.2 0.0
15/04:00pm 18.5 10.3 2.8 35 7.3 SW 35 50 19 27 1016.3 1016.3 0.0
15/03:44pm 18.6 10.7 2.4 34 7.5 SW 33 52 18 28 1016.4 1016.4 0.0
15/03:30pm 18.6 10.0 2.4 34 7.5 SW 37 50 20 27 1016.3 1016.3 0.0
15/03:02pm 19.2 11.3 2.1 32 7.9 SW 33 52 18 28 1016.2 1016.2 0.0
15/03:00pm 19.3 11.4 2.2 32 7.9 SW 33 46 18 25 1016.2 1016.2 0.0
15/02:48pm 18.7 10.0 2.1 33 7.6 SW 37 56 20 30 1016.2 1016.2 0.0
15/02:30pm 18.7 10.8 2.1 33 7.6 WSW 33 50 18 27 1016.2 1016.2 0.0
15/02:00pm 18.3 9.6 1.8 33 7.5 WSW 37 56 20 30 1016.4 1016.4 0.0
15/01:32pm 18.5 9.7 3.6 37 7.0 WSW 39 57 21 31 1016.3 1016.3 0.0
15/01:30pm 18.4 9.6 3.5 37 7.0 WSW 39 54 21 29 1016.4 1016.4 0.0
15/01:00pm 18.7 10.3 3.7 37 7.1 WSW 37 52 20 28 1016.9 1016.9 0.0
15/12:30pm 18.3 9.9 3.8 38 6.8 WSW 37 56 20 30 1017.2 1017.2 0.0
15/12:24pm 17.3 8.8 2.9 38 6.6 WSW 37 56 20 30 1017.0 1017.0 0.0
15/12:00pm 17.0 8.6 3.7 41 6.2 WSW 37 52 20 28 1017.2 1017.2 0.0
15/11:30am 16.4 8.1 4.1 44 5.8 WSW 37 50 20 27 1017.4 1017.4 0.0
15/11:04am 16.4 8.4 3.8 43 5.9 SW 35 54 19 29 1017.4 1017.4 0.0
15/11:00am 16.3 7.9 3.7 43 5.9 SW 37 54 20 29 1017.5 1017.5 0.0
15/10:30am 15.3 7.0 4.1 47 5.2 SW 37 54 20 29 1017.5 1017.5 0.0
15/10:16am 15.2 8.0 4.9 50 4.9 WSW 32 50 17 27 1017.6 1017.6 0.0
15/10:00am 14.7 7.6 6.3 57 4.1 WSW 33 48 18 26 1017.6 1017.6 0.0
15/09:30am 13.7 6.8 6.3 61 3.6 WSW 32 41 17 22 1017.5 1017.5 0.0
15/09:00am 13.2 6.7 6.5 64 3.2 WSW 30 41 16 22 1017.2 1017.2 0.0
15/08:30am 12.5 7.2 7.0 69 2.7 WSW 24 32 13 17 1017.0 1017.0 0.0
15/08:00am 11.5 7.4 7.8 78 1.8 WSW 19 26 10 14 1016.8 1016.8 0.0
15/07:30am 11.0 6.7 7.7 80 1.6 WSW 20 28 11 15 1016.5 1016.5 0.0
15/07:00am 11.4 6.4 7.9 79 1.7 WSW 24 32 13 17 1016.2 1016.2 0.0
15/06:30am 11.8 6.4 7.9 77 1.9 SW 26 33 14 18 1015.9 1015.9 0.0
15/06:00am 12.5 6.8 8.4 76 2.0 SW 28 35 15 19 1015.7 1015.7 0.0
15/05:30am 12.6 6.9 8.5 76 2.0 WSW 28 39 15 21 1015.3 1015.3 0.0
15/05:00am 13.0 7.5 9.1 77 2.0 SW 28 39 15 21 1014.9 1014.9 0.0
15/04:30am 12.7 8.0 9.2 79 1.8 SW 24 35 13 19 1015.0 1015.0 0.0
15/04:00am 12.1 8.1 8.9 81 1.6 WSW 20 30 11 16 1015.1 1015.1 0.0
15/03:30am 10.8 7.5 7.9 82 1.4 WSW 15 20 8 11 1015.2 1015.2 0.0
15/03:00am 10.6 7.6 7.5 81 1.5 WSW 13 19 7 10 1015.4 1015.4 0.0
15/02:30am 10.7 7.2 7.2 79 1.7 WSW 15 20 8 11 1015.7 1015.7 0.0
15/02:00am 11.1 7.5 6.8 75 2.1 WSW 15 20 8 11 1015.5 1015.5 0.0
15/01:30am 11.9 7.6 6.8 71 2.4 WSW 19 26 10 14 1015.4 1015.4 0.0
15/01:00am 12.0 6.6 4.7 61 3.3 WSW 22 32 12 17 1015.1 1015.1 0.0
15/12:30am 11.4 6.0 2.2 53 4.0 WNW 20 28 11 15 1015.1 1015.1 0.0
15/12:00am 9.4 4.9 2.3 61 3.0 NNW 15 17 8 9 1014.7 1014.7 0.0
 
Date/Time
CST
Temp
°C
App
Temp
°C
Dew
Point
°C
Rel
Hum
%
Delta-T
°C
Wind Press
QNH
hPa
Press
MSL
hPa
Rain since
9am
mm
Dir  Spd
km/h
Gust
km/h
Spd
kts
Gust
kts
14/11:30pm 7.6 3.4 1.5 65 2.5 N 13 13 7 7 1014.6 1014.6 0.0
14/11:00pm 9.1 6.3 2.9 65 2.7 NE 7 9 4 5 1014.6 1014.6 0.0
14/10:30pm 8.9 6.1 2.9 66 2.6 NE 7 11 4 6 1014.8 1014.8 0.0
14/10:00pm 9.6 7.0 3.1 64 2.8 NE 6 7 3 4 1015.1 1015.1 0.0
14/09:30pm 9.6 6.0 3.1 64 2.8 NE 11 11 6 6 1015.1 1015.1 0.0
14/09:00pm 10.8 7.7 3.4 60 3.3 NE 9 11 5 6 1015.1 1015.1 0.0
14/08:30pm 10.6 8.8 3.4 61 3.2 NE 2 7 1 4 1015.4 1015.4 0.0
14/08:00pm 10.9 8.0 2.7 57 3.6 NNE 7 11 4 6 1015.3 1015.3 0.0
14/07:30pm 12.0 9.1 2.5 52 4.1 N 7 9 4 5 1015.2 1015.2 0.0
14/07:00pm 13.2 9.8 2.1 47 4.9 N 9 9 5 5 1015.2 1015.2 0.0
14/06:30pm 15.6 12.5 1.4 38 6.2 NNW 7 11 4 6 1014.9 1014.9 0.0
14/06:00pm 17.6 13.7 1.2 33 7.3 NW 11 15 6 8 1014.8 1014.8 0.0
14/05:30pm 18.9 14.2 1.0 30 8.0 NW 15 20 8 11 1014.9 1014.9 0.0
14/05:00pm 18.3 14.0 0.9 31 7.8 W 13 17 7 9 1015.1 1015.1 0.0
14/04:30pm 19.6 14.9 1.1 29 8.4 WNW 15 24 8 13 1015.3 1015.3 0.0
14/04:00pm 19.5 14.9 1.5 30 8.2 WNW 15 26 8 14 1015.4 1015.4 0.0
14/03:30pm 19.2 14.3 1.7 31 8.0 W 17 26 9 14 1015.8 1015.8 0.0
14/03:00pm 19.1 13.6 2.0 32 7.8 W 20 32 11 17 1016.1 1016.1 0.0
14/02:30pm 18.7 13.2 2.1 33 7.6 W 20 30 11 16 1016.3 1016.3 0.0
14/02:00pm 18.1 13.3 2.8 36 7.1 WNW 17 24 9 13 1016.7 1016.7 0.0
14/01:30pm 17.9 13.2 3.0 37 6.9 NW 17 28 9 15 1017.2 1017.2 0.0
14/01:00pm 17.1 12.3 2.7 38 6.6 WNW 17 28 9 15 1017.7 1017.7 0.0
14/12:30pm 17.4 12.7 3.3 39 6.5 NW 17 24 9 13 1018.3 1018.3 0.0
14/12:00pm 16.0 12.0 3.1 42 5.9 NW 13 26 7 14 1019.0 1019.0 0.0
14/11:30am 14.8 11.2 3.0 45 5.3 W 11 20 6 11 1019.6 1019.6 0.0
14/11:00am 14.8 11.7 3.6 47 5.1 WSW 9 15 5 8 1019.9 1019.9 0.0
14/10:30am 14.0 10.8 3.2 48 4.9 NNW 9 15 5 8 1020.1 1020.1 0.0
14/10:00am 12.9 10.8 4.1 55 4.0 NW 4 9 2 5 1020.2 1020.2 0.0
14/09:30am 11.6 9.8 5.3 65 2.9 SW 4 9 2 5 1020.3 1020.3 0.0
14/09:00am 10.0 8.9 5.2 72 2.2 CALM 0 0 0 0 1020.6 1020.6 0.0
14/08:30am 8.0 6.9 5.1 82 1.3 CALM 0 0 0 0 1019.9 1019.9 0.0
14/08:00am 4.9 3.1 3.6 91 0.5 SE 2 7 1 4 1019.6 1019.6 0.0
14/07:30am 2.2 -0.8 0.6 89 0.6 E 6 9 3 5 1019.3 1019.3 0.0
14/07:00am 2.2 -1.0 0.6 89 0.6 E 7 9 4 5 1019.2 1019.2 0.0
14/06:30am 2.5 -0.5 0.9 89 0.6 ENE 6 9 3 5 1019.1 1019.1 0.0
14/06:00am 2.9 1.1 1.3 89 0.6 CALM 0 0 0 0 1018.8 1018.8 0.0
14/05:30am 3.0 1.2 1.5 90 0.6 CALM 0 0 0 0 1018.9 1018.9 0.0
14/05:00am 2.6 0.4 1.0 89 0.6 NE 2 6 1 3 1019.0 1019.0 0.0
14/04:30am 2.6 -0.6 0.8 88 0.7 ENE 7 9 4 5 1019.1 1019.1 0.0
14/04:00am 2.8 1.0 1.0 88 0.7 CALM 0 0 0 0 1019.2 1019.2 0.0
14/03:30am 3.0 0.0 0.7 85 0.9 WNW 6 6 3 3 1019.3 1019.3 0.0
14/03:00am 3.9 2.2 1.8 86 0.8 CALM 0 0 0 0 1019.5 1019.5 0.0
14/02:30am 4.6 2.9 2.0 83 1.0 CALM 0 0 0 0 1019.6 1019.6 0.0
14/02:00am 5.8 3.1 2.8 81 1.2 WNW 6 9 3 5 1019.8 1019.8 0.0
14/01:30am 6.2 3.5 2.8 79 1.4 S 6 6 3 3 1019.7 1019.7 0.0
14/01:00am 7.6 4.9 3.6 76 1.7 SSW 7 9 4 5 1019.5 1019.5 0.0
14/12:30am 9.3 6.9 4.3 71 2.2 WSW 6 7 3 4 1019.9 1019.9 0.0
14/12:00am 9.8 7.4 4.2 68 2.5 SW 6 7 3 4 1020.1 1020.1 0.0
 
Date/Time
CST
Temp
°C
App
Temp
°C
Dew
Point
°C
Rel
Hum
%
Delta-T
°C
Wind Press
QNH
hPa
Press
MSL
hPa
Rain since
9am
mm
Dir  Spd
km/h
Gust
km/h
Spd
kts
Gust
kts
13/11:30pm 10.4 7.1 4.3 66 2.7 SSW 11 15 6 8 1020.1 1020.1 0.0
13/11:00pm 10.6 7.6 4.3 65 2.8 SSW 9 13 5 7 1020.3 1020.3 0.0
13/10:30pm 11.1 7.0 4.3 63 3.1 SSW 15 20 8 11 1020.3 1020.3 0.0
13/10:00pm 10.9 7.9 4.1 63 3.0 SSW 9 11 5 6 1020.2 1020.2 0.0
13/09:30pm 11.5 7.7 4.0 60 3.4 S 13 17 7 9 1020.2 1020.2 0.0
13/09:00pm 11.5 8.1 4.0 60 3.4 SSW 11 15 6 8 1020.6 1020.6 0.0
13/08:30pm 11.8 8.4 4.1 59 3.5 SSW 11 13 6 7 1020.3 1020.3 0.0
13/08:00pm 12.7 9.7 3.9 55 4.0 S 9 13 5 7 1020.0 1020.0 0.0
13/07:30pm 13.4 9.2 3.8 52 4.4 SSW 15 20 8 11 1019.9 1019.9 0.0
13/07:00pm 13.8 10.4 3.9 51 4.5 SW 11 17 6 9 1019.5 1019.5 0.0
13/06:30pm 14.0 9.8 3.8 50 4.7 SW 15 20 8 11 1019.5 1019.5 0.0
13/06:00pm 14.2 10.5 4.2 51 4.6 SW 13 17 7 9 1019.3 1019.3 0.0
13/05:30pm 14.3 9.9 4.9 53 4.4 SW 17 24 9 13 1019.1 1019.1 0.0
13/05:00pm 14.6 9.7 4.9 52 4.6 SSW 20 30 11 16 1019.1 1019.1 0.0
13/04:30pm 15.0 9.2 4.4 49 4.9 SW 24 32 13 17 1019.0 1019.0 0.0
13/04:00pm 15.4 10.0 4.5 48 5.1 SW 22 30 12 16 1018.9 1018.9 0.0
13/03:30pm 15.4 9.9 3.9 46 5.3 WSW 22 32 12 17 1019.0 1019.0 0.0
13/03:00pm 15.3 10.5 4.4 48 5.1 SW 19 28 10 15 1019.2 1019.2 0.0
13/02:30pm 15.4 10.5 3.9 46 5.3 WSW 19 32 10 17 1019.3 1019.3 0.0
13/02:00pm 15.0 10.1 5.0 51 4.7 SW 20 32 11 17 1019.8 1019.8 0.0
13/01:30pm 14.5 9.9 5.6 55 4.2 W 19 24 10 13 1020.2 1020.2 0.0
13/01:00pm 13.1 6.8 5.8 61 3.5 WSW 28 39 15 21 1021.0 1021.0 0.0
13/12:30pm 14.0 9.2 5.6 57 4.0 WSW 20 32 11 17 1021.2 1021.2 0.0
13/12:00pm 14.1 9.6 6.0 58 3.9 WSW 19 24 10 13 1021.6 1021.6 0.0
13/11:30am 13.7 11.5 6.3 61 3.5 WSW 7 17 4 9 1021.8 1021.8 0.0
13/11:00am 12.4 9.9 6.7 68 2.7 SW 9 15 5 8 1022.1 1022.1 0.0
13/10:30am 11.6 9.4 7.7 77 1.9 WSW 9 13 5 7 1022.2 1022.2 0.0
13/10:00am 10.2 8.0 8.0 86 1.1 SW 9 13 5 7 1022.3 1022.3 0.0

Other formats

Comma delimited format used in spreadsheet applications
http://www.bom.gov.au/fwo/IDS60801/IDS60801.94655.axf

JavaScript Object Notation format (JSON) in row-major order
http://www.bom.gov.au/fwo/IDS60801/IDS60801.94655.json

Data quality

Most of these data are generated automatically and are frequently updated. Quality checks on data are not normally performed. It is possible for incorrect values to appear. Refer to information at About Latest Weather Observations and please check the disclaimer before using these data.